sensor_id;sensor_type;location;lat;lon;timestamp;P1;durP1;ratioP1;P2;durP2;ratioP2
13455;SDS011;6800;50.940;6.940;2023-04-25T00:00:48;13.40;;;6.20;;
13455;SDS011;6800;50.940;6.940;2023-04-25T00:04:49;10.17;;;6.43;;
13455;SDS011;6800;50.940;6.940;2023-04-25T00:08:52;10.00;;;5.50;;
13455;SDS011;6800;50.940;6.940;2023-04-25T00:12:54;10.70;;;5.90;;
13455;SDS011;6800;50.940;6.940;2023-04-25T00:16:55;10.30;;;6.33;;
13455;SDS011;6800;50.940;6.940;2023-04-25T00:20:57;12.37;;;6.10;;
13455;SDS011;6800;50.940;6.940;2023-04-25T00:24:59;16.13;;;7.00;;
13455;SDS011;6800;50.940;6.940;2023-04-25T00:29:01;13.73;;;7.27;;
13455;SDS011;6800;50.940;6.940;2023-04-25T00:33:03;15.70;;;6.80;;
13455;SDS011;6800;50.940;6.940;2023-04-25T00:37:04;11.73;;;6.20;;
13455;SDS011;6800;50.940;6.940;2023-04-25T00:41:06;10.37;;;6.67;;
13455;SDS011;6800;50.940;6.940;2023-04-25T00:45:08;13.70;;;7.13;;
13455;SDS011;6800;50.940;6.940;2023-04-25T00:49:14;11.60;;;6.40;;
13455;SDS011;6800;50.940;6.940;2023-04-25T00:53:17;14.33;;;7.07;;
13455;SDS011;6800;50.940;6.940;2023-04-25T00:57:19;12.90;;;6.70;;
13455;SDS011;6800;50.940;6.940;2023-04-25T01:01:20;12.77;;;6.70;;
13455;SDS011;6800;50.940;6.940;2023-04-25T01:05:22;16.60;;;7.73;;
13455;SDS011;6800;50.940;6.940;2023-04-25T01:09:24;11.60;;;7.47;;
13455;SDS011;6800;50.940;6.940;2023-04-25T01:13:26;13.67;;;7.20;;
13455;SDS011;6800;50.940;6.940;2023-04-25T01:17:28;13.63;;;6.67;;
13455;SDS011;6800;50.940;6.940;2023-04-25T01:21:30;12.67;;;6.77;;
13455;SDS011;6800;50.940;6.940;2023-04-25T01:25:31;13.93;;;6.90;;
13455;SDS011;6800;50.940;6.940;2023-04-25T01:29:33;12.33;;;7.60;;
13455;SDS011;6800;50.940;6.940;2023-04-25T01:33:37;10.93;;;6.97;;
13455;SDS011;6800;50.940;6.940;2023-04-25T01:37:40;11.97;;;7.13;;
13455;SDS011;6800;50.940;6.940;2023-04-25T01:41:42;16.53;;;7.40;;
13455;SDS011;6800;50.940;6.940;2023-04-25T01:45:44;13.60;;;7.97;;
13455;SDS011;6800;50.940;6.940;2023-04-25T01:49:45;14.07;;;8.20;;
13455;SDS011;6800;50.940;6.940;2023-04-25T01:53:46;15.63;;;7.50;;
13455;SDS011;6800;50.940;6.940;2023-04-25T01:57:48;11.80;;;7.03;;
13455;SDS011;6800;50.940;6.940;2023-04-25T02:01:50;13.40;;;6.70;;
13455;SDS011;6800;50.940;6.940;2023-04-25T02:05:51;14.40;;;7.00;;
13455;SDS011;6800;50.940;6.940;2023-04-25T02:09:52;15.60;;;6.63;;
13455;SDS011;6800;50.940;6.940;2023-04-25T02:13:54;13.13;;;6.80;;
13455;SDS011;6800;50.940;6.940;2023-04-25T02:17:55;12.70;;;7.07;;
13455;SDS011;6800;50.940;6.940;2023-04-25T02:21:57;14.20;;;6.70;;
13455;SDS011;6800;50.940;6.940;2023-04-25T02:25:59;12.03;;;6.17;;
13455;SDS011;6800;50.940;6.940;2023-04-25T02:30:00;14.47;;;7.03;;
13455;SDS011;6800;50.940;6.940;2023-04-25T02:34:02;10.00;;;6.80;;
13455;SDS011;6800;50.940;6.940;2023-04-25T02:38:03;10.00;;;5.80;;
13455;SDS011;6800;50.940;6.940;2023-04-25T02:42:07;8.33;;;5.90;;
13455;SDS011;6800;50.940;6.940;2023-04-25T02:46:08;7.37;;;5.87;;
13455;SDS011;6800;50.940;6.940;2023-04-25T02:50:10;11.63;;;6.10;;
13455;SDS011;6800;50.940;6.940;2023-04-25T02:54:12;13.73;;;6.17;;
13455;SDS011;6800;50.940;6.940;2023-04-25T02:58:13;12.37;;;5.90;;
13455;SDS011;6800;50.940;6.940;2023-04-25T03:02:16;11.83;;;6.20;;
13455;SDS011;6800;50.940;6.940;2023-04-25T03:06:17;12.10;;;5.40;;
13455;SDS011;6800;50.940;6.940;2023-04-25T03:10:19;9.47;;;5.40;;
13455;SDS011;6800;50.940;6.940;2023-04-25T03:14:20;9.10;;;5.13;;
13455;SDS011;6800;50.940;6.940;2023-04-25T03:18:22;11.10;;;6.17;;
13455;SDS011;6800;50.940;6.940;2023-04-25T03:22:23;10.47;;;6.13;;
13455;SDS011;6800;50.940;6.940;2023-04-25T03:26:25;10.37;;;6.30;;
13455;SDS011;6800;50.940;6.940;2023-04-25T03:30:26;10.60;;;6.00;;
13455;SDS011;6800;50.940;6.940;2023-04-25T03:34:27;10.87;;;6.07;;
13455;SDS011;6800;50.940;6.940;2023-04-25T03:38:29;9.00;;;6.37;;
13455;SDS011;6800;50.940;6.940;2023-04-25T03:42:30;13.43;;;6.30;;
13455;SDS011;6800;50.940;6.940;2023-04-25T03:46:31;9.93;;;5.80;;
13455;SDS011;6800;50.940;6.940;2023-04-25T03:50:35;11.53;;;6.47;;
13455;SDS011;6800;50.940;6.940;2023-04-25T03:54:36;10.80;;;6.00;;
13455;SDS011;6800;50.940;6.940;2023-04-25T03:58:38;11.03;;;5.93;;
13455;SDS011;6800;50.940;6.940;2023-04-25T04:02:39;9.93;;;6.63;;
13455;SDS011;6800;50.940;6.940;2023-04-25T04:06:44;10.67;;;6.10;;
13455;SDS011;6800;50.940;6.940;2023-04-25T04:10:46;10.47;;;6.03;;
13455;SDS011;6800;50.940;6.940;2023-04-25T04:14:48;11.20;;;6.60;;
13455;SDS011;6800;50.940;6.940;2023-04-25T04:18:49;10.53;;;6.47;;
13455;SDS011;6800;50.940;6.940;2023-04-25T04:22:50;13.27;;;6.50;;
13455;SDS011;6800;50.940;6.940;2023-04-25T04:26:52;13.57;;;7.03;;
13455;SDS011;6800;50.940;6.940;2023-04-25T04:30:54;11.80;;;7.70;;
13455;SDS011;6800;50.940;6.940;2023-04-25T04:34:56;10.37;;;6.40;;
13455;SDS011;6800;50.940;6.940;2023-04-25T04:38:58;11.97;;;6.47;;
13455;SDS011;6800;50.940;6.940;2023-04-25T04:42:59;11.00;;;5.63;;
13455;SDS011;6800;50.940;6.940;2023-04-25T04:47:01;9.20;;;5.83;;
13455;SDS011;6800;50.940;6.940;2023-04-25T04:51:03;11.63;;;6.50;;
13455;SDS011;6800;50.940;6.940;2023-04-25T04:55:04;15.70;;;6.60;;
13455;SDS011;6800;50.940;6.940;2023-04-25T04:59:07;11.17;;;6.47;;
13455;SDS011;6800;50.940;6.940;2023-04-25T05:03:08;11.83;;;6.77;;
13455;SDS011;6800;50.940;6.940;2023-04-25T05:07:10;14.63;;;6.73;;
13455;SDS011;6800;50.940;6.940;2023-04-25T05:11:11;14.10;;;6.50;;
13455;SDS011;6800;50.940;6.940;2023-04-25T05:15:13;13.63;;;6.53;;
13455;SDS011;6800;50.940;6.940;2023-04-25T05:19:14;15.90;;;6.47;;
13455;SDS011;6800;50.940;6.940;2023-04-25T05:23:16;11.17;;;6.37;;
13455;SDS011;6800;50.940;6.940;2023-04-25T05:27:17;12.70;;;6.40;;
13455;SDS011;6800;50.940;6.940;2023-04-25T05:31:19;11.30;;;5.87;;
13455;SDS011;6800;50.940;6.940;2023-04-25T05:35:20;13.90;;;7.30;;
13455;SDS011;6800;50.940;6.940;2023-04-25T05:39:22;12.70;;;6.20;;
13455;SDS011;6800;50.940;6.940;2023-04-25T05:43:23;14.23;;;6.10;;
13455;SDS011;6800;50.940;6.940;2023-04-25T05:47:25;13.60;;;6.17;;
13455;SDS011;6800;50.940;6.940;2023-04-25T05:51:26;11.77;;;5.77;;
13455;SDS011;6800;50.940;6.940;2023-04-25T05:55:28;17.57;;;5.80;;
13455;SDS011;6800;50.940;6.940;2023-04-25T05:59:29;14.67;;;5.80;;
13455;SDS011;6800;50.940;6.940;2023-04-25T06:03:31;15.43;;;5.97;;
13455;SDS011;6800;50.940;6.940;2023-04-25T06:07:33;11.27;;;5.70;;
13455;SDS011;6800;50.940;6.940;2023-04-25T06:11:34;15.83;;;6.33;;
13455;SDS011;6800;50.940;6.940;2023-04-25T06:15:35;14.73;;;5.20;;
13455;SDS011;6800;50.940;6.940;2023-04-25T06:19:37;11.13;;;5.17;;
13455;SDS011;6800;50.940;6.940;2023-04-25T06:23:38;11.73;;;5.17;;
13455;SDS011;6800;50.940;6.940;2023-04-25T06:27:40;19.53;;;5.70;;
13455;SDS011;6800;50.940;6.940;2023-04-25T06:31:41;10.03;;;4.30;;
13455;SDS011;6800;50.940;6.940;2023-04-25T06:35:43;16.00;;;6.33;;
13455;SDS011;6800;50.940;6.940;2023-04-25T06:39:44;12.30;;;5.83;;
13455;SDS011;6800;50.940;6.940;2023-04-25T06:43:45;11.90;;;4.70;;
13455;SDS011;6800;50.940;6.940;2023-04-25T06:47:47;11.00;;;5.07;;
13455;SDS011;6800;50.940;6.940;2023-04-25T06:51:51;13.40;;;5.80;;
13455;SDS011;6800;50.940;6.940;2023-04-25T06:55:53;13.63;;;4.97;;
13455;SDS011;6800;50.940;6.940;2023-04-25T06:59:54;11.10;;;4.30;;
13455;SDS011;6800;50.940;6.940;2023-04-25T07:03:56;8.60;;;4.20;;
13455;SDS011;6800;50.940;6.940;2023-04-25T07:07:57;9.85;;;4.00;;
13455;SDS011;6800;50.940;6.940;2023-04-25T07:11:59;13.90;;;4.20;;
13455;SDS011;6800;50.940;6.940;2023-04-25T07:16:02;10.57;;;3.87;;
13455;SDS011;6800;50.940;6.940;2023-04-25T07:20:04;10.27;;;3.60;;
13455;SDS011;6800;50.940;6.940;2023-04-25T07:24:07;14.63;;;3.60;;
13455;SDS011;6800;50.940;6.940;2023-04-25T07:28:08;12.10;;;3.70;;
13455;SDS011;6800;50.940;6.940;2023-04-25T07:32:10;9.80;;;3.70;;
13455;SDS011;6800;50.940;6.940;2023-04-25T07:36:13;10.50;;;3.13;;
13455;SDS011;6800;50.940;6.940;2023-04-25T07:40:16;8.57;;;3.30;;
13455;SDS011;6800;50.940;6.940;2023-04-25T07:44:17;8.20;;;3.40;;
13455;SDS011;6800;50.940;6.940;2023-04-25T07:48:19;8.20;;;3.50;;
13455;SDS011;6800;50.940;6.940;2023-04-25T07:52:20;12.73;;;4.60;;
13455;SDS011;6800;50.940;6.940;2023-04-25T07:56:22;10.33;;;4.00;;
13455;SDS011;6800;50.940;6.940;2023-04-25T08:00:23;10.00;;;3.83;;
13455;SDS011;6800;50.940;6.940;2023-04-25T08:04:25;10.93;;;4.10;;
13455;SDS011;6800;50.940;6.940;2023-04-25T08:08:27;8.57;;;3.00;;
13455;SDS011;6800;50.940;6.940;2023-04-25T08:12:28;9.37;;;3.97;;
13455;SDS011;6800;50.940;6.940;2023-04-25T08:16:30;12.37;;;3.20;;
13455;SDS011;6800;50.940;6.940;2023-04-25T08:20:32;7.33;;;2.90;;
13455;SDS011;6800;50.940;6.940;2023-04-25T08:24:33;6.50;;;3.20;;
13455;SDS011;6800;50.940;6.940;2023-04-25T08:28:36;9.73;;;2.83;;
13455;SDS011;6800;50.940;6.940;2023-04-25T08:32:38;8.37;;;3.13;;
13455;SDS011;6800;50.940;6.940;2023-04-25T08:36:39;7.10;;;2.93;;
13455;SDS011;6800;50.940;6.940;2023-04-25T08:40:41;7.10;;;2.30;;
13455;SDS011;6800;50.940;6.940;2023-04-25T08:44:48;7.47;;;2.57;;
13455;SDS011;6800;50.940;6.940;2023-04-25T08:48:53;6.63;;;2.50;;
13455;SDS011;6800;50.940;6.940;2023-04-25T08:53:01;6.77;;;2.40;;
13455;SDS011;6800;50.940;6.940;2023-04-25T08:57:05;8.90;;;2.40;;
13455;SDS011;6800;50.940;6.940;2023-04-25T09:01:07;6.90;;;2.23;;
13455;SDS011;6800;50.940;6.940;2023-04-25T09:05:09;7.97;;;2.67;;
13455;SDS011;6800;50.940;6.940;2023-04-25T09:09:13;8.67;;;2.47;;
13455;SDS011;6800;50.940;6.940;2023-04-25T09:13:17;12.03;;;3.17;;
13455;SDS011;6800;50.940;6.940;2023-04-25T09:17:26;6.47;;;2.67;;
13455;SDS011;6800;50.940;6.940;2023-04-25T09:21:27;6.77;;;2.90;;
13455;SDS011;6800;50.940;6.940;2023-04-25T09:25:33;6.13;;;2.50;;
13455;SDS011;6800;50.940;6.940;2023-04-25T09:29:37;8.00;;;2.80;;
13455;SDS011;6800;50.940;6.940;2023-04-25T09:33:40;10.37;;;3.23;;
13455;SDS011;6800;50.940;6.940;2023-04-25T09:37:41;7.17;;;2.60;;
13455;SDS011;6800;50.940;6.940;2023-04-25T09:41:43;5.03;;;2.40;;
13455;SDS011;6800;50.940;6.940;2023-04-25T09:45:44;6.50;;;2.73;;
13455;SDS011;6800;50.940;6.940;2023-04-25T09:49:46;8.87;;;2.70;;
13455;SDS011;6800;50.940;6.940;2023-04-25T09:53:48;8.67;;;2.97;;
13455;SDS011;6800;50.940;6.940;2023-04-25T09:57:52;7.57;;;2.77;;
13455;SDS011;6800;50.940;6.940;2023-04-25T10:01:56;9.33;;;2.90;;
13455;SDS011;6800;50.940;6.940;2023-04-25T10:06:01;7.30;;;2.40;;
13455;SDS011;6800;50.940;6.940;2023-04-25T10:10:04;5.60;;;2.37;;
13455;SDS011;6800;50.940;6.940;2023-04-25T10:14:07;8.40;;;2.83;;
13455;SDS011;6800;50.940;6.940;2023-04-25T10:18:08;6.30;;;2.30;;
13455;SDS011;6800;50.940;6.940;2023-04-25T10:26:32;9.77;;;4.13;;
13455;SDS011;6800;50.940;6.940;2023-04-25T10:30:33;6.70;;;2.93;;
13455;SDS011;6800;50.940;6.940;2023-04-25T10:34:38;8.93;;;3.07;;
13455;SDS011;6800;50.940;6.940;2023-04-25T10:38:44;6.73;;;2.93;;
13455;SDS011;6800;50.940;6.940;2023-04-25T10:42:46;9.47;;;2.50;;
13455;SDS011;6800;50.940;6.940;2023-04-25T10:46:48;5.87;;;2.40;;
13455;SDS011;6800;50.940;6.940;2023-04-25T10:50:49;5.70;;;1.97;;
13455;SDS011;6800;50.940;6.940;2023-04-25T10:54:52;7.70;;;2.87;;
13455;SDS011;6800;50.940;6.940;2023-04-25T10:59:12;4.27;;;2.80;;
13455;SDS011;6800;50.940;6.940;2023-04-25T11:03:15;5.33;;;2.30;;
13455;SDS011;6800;50.940;6.940;2023-04-25T11:07:26;7.03;;;2.53;;
13455;SDS011;6800;50.940;6.940;2023-04-25T11:11:36;6.47;;;2.30;;
13455;SDS011;6800;50.940;6.940;2023-04-25T11:15:38;5.60;;;2.47;;
13455;SDS011;6800;50.940;6.940;2023-04-25T11:19:39;4.73;;;2.43;;
13455;SDS011;6800;50.940;6.940;2023-04-25T11:23:40;4.47;;;2.03;;
13455;SDS011;6800;50.940;6.940;2023-04-25T11:27:53;4.73;;;2.00;;
13455;SDS011;6800;50.940;6.940;2023-04-25T11:31:57;4.70;;;2.20;;
13455;SDS011;6800;50.940;6.940;2023-04-25T11:35:59;5.60;;;1.90;;
13455;SDS011;6800;50.940;6.940;2023-04-25T11:40:02;4.43;;;2.17;;
13455;SDS011;6800;50.940;6.940;2023-04-25T11:44:04;4.97;;;2.13;;
13455;SDS011;6800;50.940;6.940;2023-04-25T11:48:05;3.87;;;1.60;;
13455;SDS011;6800;50.940;6.940;2023-04-25T11:52:07;5.20;;;2.03;;
13455;SDS011;6800;50.940;6.940;2023-04-25T11:56:09;6.07;;;1.90;;
13455;SDS011;6800;50.940;6.940;2023-04-25T12:00:13;2.43;;;1.37;;
13455;SDS011;6800;50.940;6.940;2023-04-25T12:04:22;6.43;;;1.73;;
13455;SDS011;6800;50.940;6.940;2023-04-25T12:08:25;4.83;;;1.83;;
13455;SDS011;6800;50.940;6.940;2023-04-25T12:12:27;4.20;;;1.70;;
13455;SDS011;6800;50.940;6.940;2023-04-25T12:16:40;5.40;;;1.50;;
13455;SDS011;6800;50.940;6.940;2023-04-25T12:20:45;4.23;;;1.50;;
13455;SDS011;6800;50.940;6.940;2023-04-25T12:24:47;3.93;;;1.70;;
13455;SDS011;6800;50.940;6.940;2023-04-25T12:28:48;3.13;;;1.50;;
13455;SDS011;6800;50.940;6.940;2023-04-25T12:32:50;6.10;;;2.10;;
13455;SDS011;6800;50.940;6.940;2023-04-25T12:36:52;4.70;;;1.43;;
13455;SDS011;6800;50.940;6.940;2023-04-25T12:40:53;4.50;;;2.20;;
13455;SDS011;6800;50.940;6.940;2023-04-25T12:44:55;3.10;;;1.70;;
13455;SDS011;6800;50.940;6.940;2023-04-25T12:48:56;4.77;;;2.20;;
13455;SDS011;6800;50.940;6.940;2023-04-25T12:53:12;4.27;;;1.80;;
13455;SDS011;6800;50.940;6.940;2023-04-25T12:57:13;2.23;;;1.60;;
13455;SDS011;6800;50.940;6.940;2023-04-25T13:01:14;3.33;;;1.90;;
13455;SDS011;6800;50.940;6.940;2023-04-25T13:05:16;3.23;;;1.77;;
13455;SDS011;6800;50.940;6.940;2023-04-25T13:09:23;4.93;;;2.30;;
13455;SDS011;6800;50.940;6.940;2023-04-25T13:13:25;6.03;;;1.63;;
13455;SDS011;6800;50.940;6.940;2023-04-25T13:17:28;5.67;;;1.87;;
13455;SDS011;6800;50.940;6.940;2023-04-25T13:21:30;3.17;;;1.43;;
13455;SDS011;6800;50.940;6.940;2023-04-25T13:25:33;4.10;;;1.67;;
13455;SDS011;6800;50.940;6.940;2023-04-25T13:29:34;1.97;;;1.70;;
13455;SDS011;6800;50.940;6.940;2023-04-25T13:33:36;3.47;;;1.60;;
13455;SDS011;6800;50.940;6.940;2023-04-25T13:37:38;1.80;;;1.60;;
13455;SDS011;6800;50.940;6.940;2023-04-25T13:41:39;2.10;;;1.37;;
13455;SDS011;6800;50.940;6.940;2023-04-25T13:45:41;3.47;;;1.77;;
13455;SDS011;6800;50.940;6.940;2023-04-25T13:49:42;2.27;;;1.50;;
13455;SDS011;6800;50.940;6.940;2023-04-25T13:53:44;2.83;;;1.60;;
13455;SDS011;6800;50.940;6.940;2023-04-25T13:57:46;2.73;;;1.43;;
13455;SDS011;6800;50.940;6.940;2023-04-25T14:01:47;2.00;;;1.40;;
13455;SDS011;6800;50.940;6.940;2023-04-25T14:05:49;2.20;;;1.33;;
13455;SDS011;6800;50.940;6.940;2023-04-25T14:09:50;4.03;;;1.83;;
13455;SDS011;6800;50.940;6.940;2023-04-25T14:13:52;4.23;;;1.53;;
13455;SDS011;6800;50.940;6.940;2023-04-25T14:17:53;1.80;;;1.60;;
13455;SDS011;6800;50.940;6.940;2023-04-25T14:21:55;2.63;;;1.43;;
13455;SDS011;6800;50.940;6.940;2023-04-25T14:25:57;3.40;;;1.80;;
13455;SDS011;6800;50.940;6.940;2023-04-25T14:29:58;3.13;;;1.83;;
13455;SDS011;6800;50.940;6.940;2023-04-25T14:33:59;4.73;;;2.10;;
13455;SDS011;6800;50.940;6.940;2023-04-25T14:38:01;2.93;;;1.40;;
13455;SDS011;6800;50.940;6.940;2023-04-25T14:42:02;3.70;;;1.30;;
13455;SDS011;6800;50.940;6.940;2023-04-25T14:46:04;2.63;;;1.03;;
13455;SDS011;6800;50.940;6.940;2023-04-25T14:50:06;2.03;;;1.20;;
13455;SDS011;6800;50.940;6.940;2023-04-25T14:54:09;4.13;;;1.30;;
13455;SDS011;6800;50.940;6.940;2023-04-25T14:58:12;5.07;;;1.60;;
13455;SDS011;6800;50.940;6.940;2023-04-25T15:02:13;3.53;;;1.37;;
13455;SDS011;6800;50.940;6.940;2023-04-25T15:06:14;3.00;;;1.60;;
13455;SDS011;6800;50.940;6.940;2023-04-25T15:10:17;5.47;;;2.03;;
13455;SDS011;6800;50.940;6.940;2023-04-25T15:14:19;4.03;;;1.43;;
13455;SDS011;6800;50.940;6.940;2023-04-25T15:18:21;7.57;;;2.50;;
13455;SDS011;6800;50.940;6.940;2023-04-25T15:22:24;4.03;;;1.70;;
13455;SDS011;6800;50.940;6.940;2023-04-25T15:26:26;3.57;;;1.70;;
13455;SDS011;6800;50.940;6.940;2023-04-25T15:30:28;3.47;;;1.63;;
13455;SDS011;6800;50.940;6.940;2023-04-25T15:34:29;3.90;;;1.73;;
13455;SDS011;6800;50.940;6.940;2023-04-25T15:38:30;3.50;;;1.83;;
13455;SDS011;6800;50.940;6.940;2023-04-25T15:42:32;3.43;;;2.13;;
13455;SDS011;6800;50.940;6.940;2023-04-25T15:46:33;4.37;;;2.00;;
13455;SDS011;6800;50.940;6.940;2023-04-25T15:50:35;4.07;;;2.17;;
13455;SDS011;6800;50.940;6.940;2023-04-25T15:54:37;3.80;;;1.90;;
13455;SDS011;6800;50.940;6.940;2023-04-25T15:58:38;3.23;;;2.00;;
13455;SDS011;6800;50.940;6.940;2023-04-25T16:02:40;3.67;;;1.80;;
13455;SDS011;6800;50.940;6.940;2023-04-25T16:06:43;5.17;;;1.90;;
13455;SDS011;6800;50.940;6.940;2023-04-25T16:10:44;5.50;;;2.40;;
13455;SDS011;6800;50.940;6.940;2023-04-25T16:14:46;3.43;;;2.33;;
13455;SDS011;6800;50.940;6.940;2023-04-25T16:18:48;2.90;;;1.87;;
13455;SDS011;6800;50.940;6.940;2023-04-25T16:22:49;2.43;;;1.67;;
13455;SDS011;6800;50.940;6.940;2023-04-25T16:26:51;3.77;;;1.53;;
13455;SDS011;6800;50.940;6.940;2023-04-25T16:30:52;5.20;;;2.17;;
13455;SDS011;6800;50.940;6.940;2023-04-25T16:34:53;2.90;;;1.70;;
13455;SDS011;6800;50.940;6.940;2023-04-25T16:38:57;4.10;;;1.73;;
13455;SDS011;6800;50.940;6.940;2023-04-25T16:43:01;3.77;;;1.80;;
13455;SDS011;6800;50.940;6.940;2023-04-25T16:47:02;2.80;;;1.77;;
13455;SDS011;6800;50.940;6.940;2023-04-25T16:51:05;4.27;;;1.83;;
13455;SDS011;6800;50.940;6.940;2023-04-25T16:55:06;3.87;;;2.03;;
13455;SDS011;6800;50.940;6.940;2023-04-25T16:59:08;4.83;;;2.00;;
13455;SDS011;6800;50.940;6.940;2023-04-25T17:03:10;3.23;;;1.67;;
13455;SDS011;6800;50.940;6.940;2023-04-25T17:07:11;5.23;;;2.00;;
13455;SDS011;6800;50.940;6.940;2023-04-25T17:11:13;3.33;;;2.00;;
13455;SDS011;6800;50.940;6.940;2023-04-25T17:15:14;3.10;;;2.00;;
13455;SDS011;6800;50.940;6.940;2023-04-25T17:19:16;3.83;;;1.77;;
13455;SDS011;6800;50.940;6.940;2023-04-25T17:23:17;5.43;;;2.10;;
13455;SDS011;6800;50.940;6.940;2023-04-25T17:27:19;4.27;;;1.73;;
13455;SDS011;6800;50.940;6.940;2023-04-25T17:31:20;4.10;;;2.10;;
13455;SDS011;6800;50.940;6.940;2023-04-25T17:35:23;5.47;;;2.40;;
13455;SDS011;6800;50.940;6.940;2023-04-25T17:39:26;4.17;;;2.17;;
13455;SDS011;6800;50.940;6.940;2023-04-25T17:43:27;3.87;;;2.00;;
13455;SDS011;6800;50.940;6.940;2023-04-25T17:47:28;6.80;;;4.33;;
13455;SDS011;6800;50.940;6.940;2023-04-25T17:51:30;6.80;;;2.30;;
13455;SDS011;6800;50.940;6.940;2023-04-25T17:55:31;4.57;;;2.37;;
13455;SDS011;6800;50.940;6.940;2023-04-25T17:59:33;2.47;;;1.80;;
13455;SDS011;6800;50.940;6.940;2023-04-25T18:03:34;4.23;;;2.40;;
13455;SDS011;6800;50.940;6.940;2023-04-25T18:07:38;3.87;;;2.30;;
13455;SDS011;6800;50.940;6.940;2023-04-25T18:11:39;3.97;;;2.00;;
13455;SDS011;6800;50.940;6.940;2023-04-25T18:15:41;4.23;;;2.00;;
13455;SDS011;6800;50.940;6.940;2023-04-25T18:19:42;3.60;;;2.73;;
13455;SDS011;6800;50.940;6.940;2023-04-25T18:23:44;7.50;;;2.37;;
13455;SDS011;6800;50.940;6.940;2023-04-25T18:27:46;3.93;;;2.00;;
13455;SDS011;6800;50.940;6.940;2023-04-25T18:31:47;3.60;;;1.90;;
13455;SDS011;6800;50.940;6.940;2023-04-25T18:35:50;3.50;;;1.97;;
13455;SDS011;6800;50.940;6.940;2023-04-25T18:39:59;3.73;;;2.70;;
13455;SDS011;6800;50.940;6.940;2023-04-25T18:44:06;4.47;;;2.17;;
13455;SDS011;6800;50.940;6.940;2023-04-25T18:48:07;4.67;;;2.30;;
13455;SDS011;6800;50.940;6.940;2023-04-25T18:52:09;3.10;;;2.30;;
13455;SDS011;6800;50.940;6.940;2023-04-25T18:56:12;4.10;;;2.20;;
13455;SDS011;6800;50.940;6.940;2023-04-25T19:00:15;3.23;;;2.10;;
13455;SDS011;6800;50.940;6.940;2023-04-25T19:04:17;3.57;;;2.10;;
13455;SDS011;6800;50.940;6.940;2023-04-25T19:08:19;4.37;;;2.40;;
13455;SDS011;6800;50.940;6.940;2023-04-25T19:12:21;4.90;;;2.60;;
13455;SDS011;6800;50.940;6.940;2023-04-25T19:16:22;4.13;;;2.47;;
13455;SDS011;6800;50.940;6.940;2023-04-25T19:20:26;4.77;;;2.60;;
13455;SDS011;6800;50.940;6.940;2023-04-25T19:24:28;4.00;;;2.50;;
13455;SDS011;6800;50.940;6.940;2023-04-25T19:28:29;4.87;;;2.60;;
13455;SDS011;6800;50.940;6.940;2023-04-25T19:32:32;4.90;;;2.40;;
13455;SDS011;6800;50.940;6.940;2023-04-25T19:36:38;4.07;;;2.50;;
13455;SDS011;6800;50.940;6.940;2023-04-25T19:40:42;4.67;;;2.40;;
13455;SDS011;6800;50.940;6.940;2023-04-25T19:44:44;5.00;;;2.97;;
13455;SDS011;6800;50.940;6.940;2023-04-25T19:48:45;5.30;;;2.90;;
13455;SDS011;6800;50.940;6.940;2023-04-25T19:52:47;4.87;;;3.73;;
13455;SDS011;6800;50.940;6.940;2023-04-25T19:56:48;6.87;;;2.80;;
13455;SDS011;6800;50.940;6.940;2023-04-25T20:00:49;6.00;;;3.53;;
13455;SDS011;6800;50.940;6.940;2023-04-25T20:04:51;5.00;;;2.80;;
13455;SDS011;6800;50.940;6.940;2023-04-25T20:08:53;4.30;;;2.90;;
13455;SDS011;6800;50.940;6.940;2023-04-25T20:12:55;4.60;;;2.63;;
13455;SDS011;6800;50.940;6.940;2023-04-25T20:16:56;5.90;;;2.87;;
13455;SDS011;6800;50.940;6.940;2023-04-25T20:20:58;8.87;;;3.67;;
13455;SDS011;6800;50.940;6.940;2023-04-25T20:24:59;5.90;;;2.63;;
13455;SDS011;6800;50.940;6.940;2023-04-25T20:29:01;7.40;;;3.43;;
13455;SDS011;6800;50.940;6.940;2023-04-25T20:33:02;8.40;;;4.03;;
13455;SDS011;6800;50.940;6.940;2023-04-25T20:37:04;4.37;;;3.10;;
13455;SDS011;6800;50.940;6.940;2023-04-25T20:41:05;6.13;;;3.13;;
13455;SDS011;6800;50.940;6.940;2023-04-25T20:45:07;7.63;;;3.27;;
13455;SDS011;6800;50.940;6.940;2023-04-25T20:49:13;7.57;;;3.33;;
13455;SDS011;6800;50.940;6.940;2023-04-25T20:53:15;9.27;;;4.67;;
13455;SDS011;6800;50.940;6.940;2023-04-25T20:57:16;4.83;;;3.30;;
13455;SDS011;6800;50.940;6.940;2023-04-25T21:01:18;5.23;;;3.50;;
13455;SDS011;6800;50.940;6.940;2023-04-25T21:05:19;5.03;;;3.27;;
13455;SDS011;6800;50.940;6.940;2023-04-25T21:09:22;8.53;;;3.50;;
13455;SDS011;6800;50.940;6.940;2023-04-25T21:13:23;8.10;;;3.13;;
13455;SDS011;6800;50.940;6.940;2023-04-25T21:17:27;7.00;;;3.07;;
13455;SDS011;6800;50.940;6.940;2023-04-25T21:21:28;5.47;;;2.93;;
13455;SDS011;6800;50.940;6.940;2023-04-25T21:25:31;5.17;;;3.90;;
13455;SDS011;6800;50.940;6.940;2023-04-25T21:29:32;7.20;;;3.73;;
13455;SDS011;6800;50.940;6.940;2023-04-25T21:33:34;8.23;;;3.77;;
13455;SDS011;6800;50.940;6.940;2023-04-25T21:37:35;8.33;;;3.80;;
13455;SDS011;6800;50.940;6.940;2023-04-25T21:41:36;9.80;;;4.47;;
13455;SDS011;6800;50.940;6.940;2023-04-25T21:45:42;4.40;;;3.20;;
13455;SDS011;6800;50.940;6.940;2023-04-25T21:50:03;4.90;;;3.27;;
13455;SDS011;6800;50.940;6.940;2023-04-25T21:54:05;5.43;;;3.17;;
13455;SDS011;6800;50.940;6.940;2023-04-25T21:58:06;4.13;;;3.03;;
13455;SDS011;6800;50.940;6.940;2023-04-25T22:02:08;5.00;;;3.27;;
13455;SDS011;6800;50.940;6.940;2023-04-25T22:06:10;5.10;;;2.97;;
13455;SDS011;6800;50.940;6.940;2023-04-25T22:10:12;5.80;;;3.20;;
13455;SDS011;6800;50.940;6.940;2023-04-25T22:14:13;5.73;;;3.07;;
13455;SDS011;6800;50.940;6.940;2023-04-25T22:18:14;7.13;;;3.33;;
13455;SDS011;6800;50.940;6.940;2023-04-25T22:22:16;4.17;;;3.03;;
13455;SDS011;6800;50.940;6.940;2023-04-25T22:26:18;6.10;;;3.00;;
13455;SDS011;6800;50.940;6.940;2023-04-25T22:30:20;3.87;;;2.77;;
13455;SDS011;6800;50.940;6.940;2023-04-25T22:34:21;4.80;;;3.30;;
13455;SDS011;6800;50.940;6.940;2023-04-25T22:38:23;6.57;;;2.80;;
13455;SDS011;6800;50.940;6.940;2023-04-25T22:42:24;7.67;;;3.07;;
13455;SDS011;6800;50.940;6.940;2023-04-25T22:46:26;7.47;;;4.13;;
13455;SDS011;6800;50.940;6.940;2023-04-25T22:50:27;7.70;;;3.60;;
13455;SDS011;6800;50.940;6.940;2023-04-25T22:54:32;5.73;;;3.60;;
13455;SDS011;6800;50.940;6.940;2023-04-25T22:58:33;7.57;;;2.90;;
13455;SDS011;6800;50.940;6.940;2023-04-25T23:02:35;4.80;;;2.90;;
13455;SDS011;6800;50.940;6.940;2023-04-25T23:06:37;4.07;;;3.13;;
13455;SDS011;6800;50.940;6.940;2023-04-25T23:10:38;5.80;;;2.80;;
13455;SDS011;6800;50.940;6.940;2023-04-25T23:14:40;6.13;;;3.30;;
13455;SDS011;6800;50.940;6.940;2023-04-25T23:18:44;4.63;;;2.97;;
13455;SDS011;6800;50.940;6.940;2023-04-25T23:22:46;7.03;;;3.70;;
13455;SDS011;6800;50.940;6.940;2023-04-25T23:26:48;5.10;;;3.40;;
13455;SDS011;6800;50.940;6.940;2023-04-25T23:30:49;6.27;;;3.47;;
13455;SDS011;6800;50.940;6.940;2023-04-25T23:34:50;5.83;;;3.17;;
13455;SDS011;6800;50.940;6.940;2023-04-25T23:38:52;6.57;;;3.50;;
13455;SDS011;6800;50.940;6.940;2023-04-25T23:42:55;6.17;;;3.23;;
13455;SDS011;6800;50.940;6.940;2023-04-25T23:46:57;5.17;;;3.20;;
13455;SDS011;6800;50.940;6.940;2023-04-25T23:50:59;4.17;;;3.23;;
13455;SDS011;6800;50.940;6.940;2023-04-25T23:55:01;7.87;;;3.70;;
13455;SDS011;6800;50.940;6.940;2023-04-25T23:59:02;5.00;;;3.40;;
